Time;durP1;ratioP1;P1;durP2;ratioP2;P2;SDS_P1;SDS_P2;PMS_P1;PMS_P2;Temp;Humidity;BMP_temperature;BMP_pressure;BME280_temperature;BME280_humidity;BME280_pressure;Samples;Min_cycle;Max_cycle;Signal;HPM_P1;HPM_P2
2022/03/24 00:00:12;;;;;;;33.13;21.67;;;;;;;7.61;68.96;100491.09;4981117;28;21010;-78
2022/03/24 00:02:38;;;;;;;31.35;22.75;;;;;;;7.41;70.61;100493.53;4982963;28;20222;-78
2022/03/24 00:05:06;;;;;;;28.55;21.02;;;;;;;7.49;70.37;100486.16;4985231;28;20198;-78
2022/03/24 00:07:32;;;;;;;33.63;22.55;;;;;;;7.57;70.13;100488.56;4991816;28;20203;-78
2022/03/24 00:09:59;;;;;;;28.17;21.88;;;;;;;7.67;69.43;100487.38;4992042;28;20618;-78
2022/03/24 00:12:27;;;;;;;26.80;20.05;;;;;;;7.70;69.50;100489.94;4992979;28;20534;-78
2022/03/24 00:14:55;;;;;;;27.85;20.13;;;;;;;7.51;70.01;100486.97;4984492;28;20881;-79
2022/03/24 00:17:21;;;;;;;29.77;18.60;;;;;;;7.55;69.58;100485.94;4991040;28;20212;-78
2022/03/24 00:19:48;;;;;;;27.67;19.67;;;;;;;7.45;70.32;100488.03;4989427;28;20213;-78
2022/03/24 00:22:15;;;;;;;25.17;19.40;;;;;;;7.29;71.32;100492.97;4986617;28;20201;-79
2022/03/24 00:24:42;;;;;;;23.45;19.27;;;;;;;7.43;70.33;100491.69;4989345;28;20322;-78
2022/03/24 00:27:09;;;;;;;27.15;19.10;;;;;;;7.51;69.95;100492.34;4990370;28;20865;-78
2022/03/24 00:29:35;;;;;;;27.25;19.65;;;;;;;7.49;69.63;100483.47;4989585;28;20196;-79
2022/03/24 00:32:04;;;;;;;27.35;19.48;;;;;;;7.40;70.11;100484.63;4990702;28;20242;-78
2022/03/24 00:34:31;;;;;;;25.70;20.27;;;;;;;7.31;70.25;100492.94;4986752;28;20225;-79
2022/03/24 00:36:57;;;;;;;26.50;19.45;;;;;;;7.38;69.98;100493.63;4991365;28;20188;-79
2022/03/24 00:39:24;;;;;;;32.63;20.20;;;;;;;7.37;69.86;100490.09;4986800;28;20212;-78
2022/03/24 00:41:51;;;;;;;25.95;19.10;;;;;;;7.31;70.38;100487.59;4983810;28;20192;-78
2022/03/24 00:44:19;;;;;;;28.35;19.75;;;;;;;7.30;70.48;100489.41;4987966;28;20197;-79
2022/03/24 00:46:46;;;;;;;22.58;18.25;;;;;;;7.20;70.89;100493.25;4985756;28;20204;-79
2022/03/24 00:49:14;;;;;;;24.55;18.58;;;;;;;7.36;69.73;100485.63;4991410;28;20197;-79
2022/03/24 00:51:40;;;;;;;23.40;17.85;;;;;;;7.31;70.24;100491.13;4985934;28;20196;-79
2022/03/24 00:54:07;;;;;;;23.17;18.00;;;;;;;7.48;69.52;100489.72;4975936;28;20291;-78
2022/03/24 00:56:34;;;;;;;24.02;18.15;;;;;;;7.31;70.28;100476.88;4979162;28;20216;-79
2022/03/24 00:59:00;;;;;;;24.63;17.80;;;;;;;7.50;69.28;100486.06;4978979;28;20913;-78
2022/03/24 01:01:27;;;;;;;28.90;18.25;;;;;;;7.52;69.18;100476.19;4988340;28;21057;-79
2022/03/24 01:03:53;;;;;;;25.15;18.27;;;;;;;7.37;69.89;100478.47;4992355;28;20987;-78
2022/03/24 01:06:25;;;;;;;27.13;18.67;;;;;;;7.12;71.96;100478.34;4982922;28;20196;-78
2022/03/24 01:08:51;;;;;;;27.23;18.88;;;;;;;7.01;73.14;100484.91;4983892;28;20231;-78
2022/03/24 01:11:18;;;;;;;27.20;18.63;;;;;;;7.07;72.54;100476.66;4987184;28;20200;-77
2022/03/24 01:13:45;;;;;;;30.27;19.98;;;;;;;7.13;72.07;100475.63;4985977;28;20188;-78
2022/03/24 01:16:12;;;;;;;27.52;19.15;;;;;;;7.03;72.52;100475.03;4985487;28;20192;-79
2022/03/24 01:18:39;;;;;;;29.77;18.77;;;;;;;6.76;74.03;100482.06;4987776;28;20196;-79
2022/03/24 01:21:06;;;;;;;25.95;17.05;;;;;;;6.73;75.05;100476.78;4986831;28;20722;-79
2022/03/24 01:23:34;;;;;;;24.77;18.15;;;;;;;6.62;75.95;100481.56;4993672;28;20556;-79
2022/03/24 01:26:05;;;;;;;26.55;19.10;;;;;;;6.63;76.10;100480.66;4991914;28;20196;-78
2022/03/24 01:28:32;;;;;;;33.25;18.50;;;;;;;6.51;77.34;100473.81;4984830;28;20202;-79
2022/03/24 01:30:59;;;;;;;27.42;19.88;;;;;;;6.47;77.61;100470.38;4983070;28;20203;-79
2022/03/24 01:33:26;;;;;;;28.25;20.05;;;;;;;6.41;77.89;100470.53;4981442;28;20199;-78
2022/03/24 01:35:52;;;;;;;33.10;19.88;;;;;;;6.33;78.43;100466.28;4985022;28;20188;-79
2022/03/24 01:38:22;;;;;;;26.33;18.35;;;;;;;6.28;79.11;100460.19;4992902;28;20556;-79
2022/03/24 01:40:51;;;;;;;28.05;19.25;;;;;;;6.29;79.25;100462.84;4981879;28;20299;-78
2022/03/24 01:43:19;;;;;;;26.08;18.67;;;;;;;6.13;80.21;100466.81;4985778;28;20196;-78
2022/03/24 01:45:45;;;;;;;28.25;19.05;;;;;;;6.21;80.07;100463.03;4984025;28;20203;-79
2022/03/24 01:48:14;;;;;;;22.63;18.42;;;;;;;6.29;79.80;100464.63;4984450;28;20195;-79
2022/03/24 01:50:40;;;;;;;29.13;18.90;;;;;;;6.25;79.86;100463.84;4984667;28;20358;-78
2022/03/24 01:53:07;;;;;;;29.15;19.75;;;;;;;6.25;80.09;100454.00;4984572;28;20203;-78
2022/03/24 01:55:34;;;;;;;32.45;20.67;;;;;;;6.06;81.65;100463.44;4982919;28;20199;-79
2022/03/24 01:58:03;;;;;;;27.40;19.67;;;;;;;6.13;81.69;100461.47;4986829;28;20296;-78
2022/03/24 02:00:31;;;;;;;29.35;19.85;;;;;;;6.15;80.78;100457.84;4982652;28;20241;-78
2022/03/24 02:03:02;;;;;;;29.15;20.13;;;;;;;6.08;81.34;100452.69;4981899;28;20195;-78
2022/03/24 02:05:30;;;;;;;28.77;19.17;;;;;;;6.13;81.18;100459.69;4983470;28;20223;-80
2022/03/24 02:07:58;;;;;;;28.83;19.08;;;;;;;6.24;80.63;100456.72;4981368;28;20201;-79
2022/03/24 02:10:25;;;;;;;31.80;19.30;;;;;;;6.25;80.60;100456.69;4974738;28;20255;-80
2022/03/24 02:12:54;;;;;;;26.58;19.77;;;;;;;6.11;81.41;100449.97;4986661;28;20547;-79
2022/03/24 02:15:22;;;;;;;30.63;19.88;;;;;;;5.98;82.67;100454.75;4987880;28;20589;-79
2022/03/24 02:17:49;;;;;;;26.50;19.48;;;;;;;5.94;82.91;100455.69;4974489;28;20199;-79
2022/03/24 02:20:16;;;;;;;26.55;19.92;;;;;;;5.85;84.14;100456.81;4981100;28;20211;-79
2022/03/24 02:22:45;;;;;;;25.65;19.83;;;;;;;5.91;84.13;100453.97;4988276;28;20715;-78
2022/03/24 02:25:12;;;;;;;27.30;19.45;;;;;;;5.80;84.61;100451.56;4980534;28;20199;-78
2022/03/24 02:27:39;;;;;;;27.95;19.70;;;;;;;5.88;84.32;100454.06;4984047;28;20278;-80
2022/03/24 02:30:08;;;;;;;27.30;19.55;;;;;;;5.98;83.68;100458.28;4984438;28;20195;-77
2022/03/24 02:32:34;;;;;;;28.23;19.50;;;;;;;5.78;84.57;100449.84;4980635;28;20196;-79
2022/03/24 02:35:01;;;;;;;27.83;19.98;;;;;;;5.74;84.76;100451.72;4980510;28;20192;-78
2022/03/24 02:37:28;;;;;;;25.98;19.73;;;;;;;5.62;85.17;100455.56;4983027;28;20207;-78
2022/03/24 02:39:58;;;;;;;29.08;19.80;;;;;;;5.62;85.25;100450.22;4983667;28;20227;-79
2022/03/24 02:42:26;;;;;;;30.23;20.00;;;;;;;5.72;84.99;100455.34;4984143;28;20187;-79
2022/03/24 02:44:54;;;;;;;27.70;19.13;;;;;;;5.71;84.53;100457.16;4978091;28;20199;-79
2022/03/24 02:47:22;;;;;;;32.22;19.10;;;;;;;5.61;85.39;100456.50;4990627;28;20195;-79
2022/03/24 02:49:50;;;;;;;28.13;19.92;;;;;;;5.53;85.54;100449.56;4983921;28;20219;-79
2022/03/24 02:52:17;;;;;;;34.55;19.90;;;;;;;5.50;85.29;100452.34;4983262;28;20191;-79
2022/03/24 02:54:44;;;;;;;26.52;19.52;;;;;;;5.49;85.77;100447.88;4986881;28;20195;-79
2022/03/24 02:57:12;;;;;;;25.13;19.10;;;;;;;5.52;85.20;100446.03;4981624;28;20635;-79
2022/03/24 02:59:39;;;;;;;25.73;19.40;;;;;;;5.54;85.24;100443.31;4991920;28;20199;-79
2022/03/24 03:02:08;;;;;;;26.25;19.00;;;;;;;5.53;84.42;100453.13;4983416;28;20235;-79
2022/03/24 03:04:35;;;;;;;24.55;19.13;;;;;;;5.42;85.39;100456.03;4989350;28;20200;-79
2022/03/24 03:07:04;;;;;;;26.40;20.02;;;;;;;5.42;85.68;100460.50;4995182;28;20203;-79
2022/03/24 03:09:31;;;;;;;27.02;18.45;;;;;;;5.48;85.52;100448.81;4985295;28;20192;-78
2022/03/24 03:11:58;;;;;;;25.08;18.80;;;;;;;5.39;85.87;100456.13;4987360;28;20194;-79
2022/03/24 03:14:29;;;;;;;26.52;19.40;;;;;;;5.36;85.64;100449.97;4987414;28;20191;-80
2022/03/24 03:16:56;;;;;;;29.25;18.77;;;;;;;5.27;86.44;100458.19;4980105;28;20275;-80
2022/03/24 03:19:23;;;;;;;25.40;18.98;;;;;;;5.10;87.69;100461.25;4978050;28;20707;-79
2022/03/24 03:21:51;;;;;;;28.02;19.23;;;;;;;5.21;87.50;100461.88;4984556;28;20211;-79
2022/03/24 03:24:21;;;;;;;25.48;18.05;;;;;;;5.46;86.09;100458.66;4986372;28;20210;-79
2022/03/24 03:26:48;;;;;;;28.40;19.75;;;;;;;5.44;85.87;100466.69;4987697;28;20196;-79
2022/03/24 03:29:15;;;;;;;24.98;18.13;;;;;;;5.46;85.63;100470.22;4983930;28;20646;-79
2022/03/24 03:31:43;;;;;;;24.38;18.00;;;;;;;5.63;84.46;100461.78;4985193;28;20188;-79
2022/03/24 03:34:10;;;;;;;28.73;18.95;;;;;;;5.37;86.05;100465.09;4991200;28;20207;-79
2022/03/24 03:36:38;;;;;;;24.95;19.17;;;;;;;5.36;86.62;100471.31;4976257;28;20184;-79
2022/03/24 03:39:06;;;;;;;24.63;19.00;;;;;;;5.13;89.09;100472.75;4985265;28;20555;-79
2022/03/24 03:41:34;;;;;;;25.20;18.58;;;;;;;5.18;89.23;100469.97;4988978;28;20210;-79
2022/03/24 03:44:01;;;;;;;25.85;18.30;;;;;;;5.08;89.28;100469.28;4976373;28;20188;-79
2022/03/24 03:46:27;;;;;;;27.83;19.20;;;;;;;4.99;90.39;100472.16;4985573;28;20202;-80
2022/03/24 03:48:55;;;;;;;26.23;18.80;;;;;;;4.84;91.84;100476.03;4992455;28;20192;-78
2022/03/24 03:51:22;;;;;;;26.15;18.80;;;;;;;4.95;90.94;100468.69;4990547;28;20589;-77
2022/03/24 03:53:48;;;;;;;32.45;20.40;;;;;;;4.92;90.89;100473.19;4975844;28;20209;-78
2022/03/24 03:56:15;;;;;;;27.65;20.10;;;;;;;4.94;90.49;100468.69;4991793;28;20199;-78
2022/03/24 03:58:41;;;;;;;30.85;19.75;;;;;;;4.94;90.51;100469.56;4985604;28;20200;-80
2022/03/24 04:01:09;;;;;;;29.83;19.33;;;;;;;4.85;91.19;100469.78;4983022;28;20693;-79
2022/03/24 04:03:37;;;;;;;25.83;17.73;;;;;;;4.70;91.72;100472.75;4990222;28;20250;-80
2022/03/24 04:06:08;;;;;;;26.42;18.65;;;;;;;4.71;92.10;100467.38;4984051;28;20623;-79
2022/03/24 04:08:35;;;;;;;27.38;19.33;;;;;;;4.79;91.78;100470.78;4983450;28;20192;-78
2022/03/24 04:11:02;;;;;;;23.85;17.50;;;;;;;4.86;90.59;100467.97;4983292;28;20637;-78
2022/03/24 04:13:29;;;;;;;28.25;19.80;;;;;;;4.77;91.88;100466.38;4985984;28;20658;-78
2022/03/24 04:15:56;;;;;;;26.15;17.67;;;;;;;4.76;92.73;100469.97;4981553;28;20199;-79
2022/03/24 04:18:23;;;;;;;29.88;19.92;;;;;;;4.70;93.17;100460.28;4981161;28;20231;-79
2022/03/24 04:20:50;;;;;;;30.38;18.02;;;;;;;4.81;92.26;100470.75;4976878;28;20222;-80
2022/03/24 04:23:20;;;;;;;29.80;18.85;;;;;;;4.68;93.18;100467.47;4993366;28;20193;-79
2022/03/24 04:25:47;;;;;;;27.33;18.58;;;;;;;4.64;93.22;100465.75;4985378;28;20208;-79
2022/03/24 04:28:14;;;;;;;23.23;17.55;;;;;;;4.65;93.63;100462.16;4979519;28;20647;-79
2022/03/24 04:30:42;;;;;;;27.98;18.00;;;;;;;4.65;93.22;100464.84;4986132;28;20563;-79
2022/03/24 04:33:10;;;;;;;28.63;19.20;;;;;;;4.50;93.28;100463.38;4990044;28;20220;-79
2022/03/24 04:35:36;;;;;;;30.00;18.92;;;;;;;4.54;93.61;100462.38;4982845;28;20638;-79
2022/03/24 04:38:04;;;;;;;25.52;18.25;;;;;;;4.35;94.83;100461.00;4977830;28;20206;-79
2022/03/24 04:40:32;;;;;;;30.90;18.33;;;;;;;4.28;96.58;100468.22;4983772;28;20219;-79
2022/03/24 04:42:59;;;;;;;30.42;18.05;;;;;;;4.28;96.38;100464.69;4990223;28;20197;-79
2022/03/24 04:45:27;;;;;;;25.33;17.58;;;;;;;4.35;95.88;100472.53;4988659;28;20218;-79
2022/03/24 04:47:54;;;;;;;29.48;19.45;;;;;;;4.25;96.10;100464.72;4982777;28;20200;-79
2022/03/24 04:50:21;;;;;;;26.27;17.90;;;;;;;4.27;97.26;100461.09;4988942;28;20959;-79
2022/03/24 04:52:49;;;;;;;28.63;18.77;;;;;;;4.21;96.92;100463.03;4983256;28;20217;-79
2022/03/24 04:55:17;;;;;;;26.55;19.50;;;;;;;4.28;96.50;100462.00;4988603;28;20641;-76
2022/03/24 04:57:45;;;;;;;29.55;18.35;;;;;;;4.26;96.25;100470.03;4983186;28;20194;-79
2022/03/24 05:00:15;;;;;;;27.35;19.35;;;;;;;4.17;96.71;100470.19;4987744;28;20206;-79
2022/03/24 05:02:42;;;;;;;28.00;18.73;;;;;;;4.19;96.99;100465.72;4977675;28;20681;-79
2022/03/24 05:05:10;;;;;;;27.95;19.92;;;;;;;4.10;97.30;100468.56;4982607;28;20201;-79
2022/03/24 05:07:37;;;;;;;26.00;18.67;;;;;;;4.08;98.77;100473.91;4975770;28;20646;-79
2022/03/24 05:10:04;;;;;;;30.20;19.05;;;;;;;4.29;96.92;100471.75;4985239;28;20242;-79
2022/03/24 05:12:31;;;;;;;25.73;18.63;;;;;;;4.36;95.99;100471.63;4985369;28;20544;-78
2022/03/24 05:14:59;;;;;;;27.58;18.60;;;;;;;4.46;95.18;100472.31;4985425;28;20199;-79
2022/03/24 05:17:26;;;;;;;27.90;17.90;;;;;;;4.44;95.22;100475.94;4984389;28;20199;-79
2022/03/24 05:19:52;;;;;;;27.70;19.60;;;;;;;4.30;95.96;100478.88;4989600;28;20191;-79
2022/03/24 05:22:19;;;;;;;26.25;18.75;;;;;;;4.26;96.84;100475.38;4985781;28;20609;-79
2022/03/24 05:24:46;;;;;;;27.60;19.30;;;;;;;4.29;96.56;100471.75;4984859;28;20183;-78
2022/03/24 05:27:13;;;;;;;29.10;19.30;;;;;;;4.19;97.14;100473.72;4984513;28;20194;-78
2022/03/24 05:29:40;;;;;;;28.42;19.30;;;;;;;4.17;97.62;100475.53;4983162;28;20203;-79
2022/03/24 05:32:09;;;;;;;30.50;19.67;;;;;;;4.34;96.81;100478.78;4975151;28;20571;-78
2022/03/24 05:34:36;;;;;;;32.78;19.50;;;;;;;4.30;98.42;100482.41;4984995;28;20187;-79
2022/03/24 05:37:02;;;;;;;28.08;19.15;;;;;;;4.37;98.01;100492.03;4980145;28;20203;-78
2022/03/24 05:39:29;;;;;;;31.45;20.88;;;;;;;4.34;97.30;100494.78;4978941;28;20199;-79
2022/03/24 05:41:57;;;;;;;33.42;22.23;;;;;;;4.32;96.98;100493.03;4975356;28;20760;-78
2022/03/24 05:44:24;;;;;;;37.88;21.95;;;;;;;4.44;97.85;100498.16;4982084;28;20207;-79
2022/03/24 05:46:51;;;;;;;30.73;22.33;;;;;;;4.47;96.13;100498.06;4989922;28;20517;-79
2022/03/24 05:49:21;;;;;;;32.25;22.35;;;;;;;4.48;96.22;100493.66;4976677;28;20203;-79
2022/03/24 05:51:48;;;;;;;35.60;21.40;;;;;;;4.48;95.65;100488.31;4987592;28;20196;-79
2022/03/24 05:54:17;;;;;;;26.90;18.73;;;;;;;4.45;95.26;100485.69;4980822;28;20246;-80
2022/03/24 05:56:44;;;;;;;29.50;18.98;;;;;;;4.27;97.05;100492.22;4981322;28;20187;-79
2022/03/24 05:59:11;;;;;;;24.83;18.27;;;;;;;4.28;97.68;100491.34;4979315;28;20214;-78
2022/03/24 06:01:39;;;;;;;32.70;21.35;;;;;;;4.42;96.09;100494.63;4988389;28;20649;-78
2022/03/24 06:04:06;;;;;;;27.73;20.33;;;;;;;4.49;96.21;100492.72;4992229;28;20243;-78
2022/03/24 06:06:37;;;;;;;30.80;19.55;;;;;;;4.51;95.28;100490.91;4980609;28;20194;-79
2022/03/24 06:09:05;;;;;;;35.22;19.38;;;;;;;4.54;95.61;100491.72;4980333;28;20191;-78
2022/03/24 06:11:34;;;;;;;30.33;19.27;;;;;;;4.59;94.30;100495.19;4985323;28;20195;-78
2022/03/24 06:14:01;;;;;;;28.33;20.13;;;;;;;4.60;94.09;100499.59;4984717;28;20619;-79
2022/03/24 06:16:28;;;;;;;27.83;19.73;;;;;;;4.54;94.43;100488.16;4975554;28;20650;-80
2022/03/24 06:18:54;;;;;;;29.05;20.85;;;;;;;4.62;94.34;100496.03;4978777;28;20198;-78
2022/03/24 06:21:21;;;;;;;26.63;18.98;;;;;;;4.66;94.27;100495.06;4983740;28;20835;-79
2022/03/24 06:23:50;;;;;;;28.98;19.85;;;;;;;4.61;94.60;100497.81;4980545;28;20886;-79
2022/03/24 06:26:19;;;;;;;27.20;19.95;;;;;;;4.74;93.37;100498.47;4976350;28;20211;-77
2022/03/24 06:28:45;;;;;;;34.35;21.40;;;;;;;5.03;91.26;100489.84;4985902;28;20187;-79
2022/03/24 06:31:12;;;;;;;27.60;20.02;;;;;;;5.07;91.02;100491.56;4981059;28;20202;-79
2022/03/24 06:33:39;;;;;;;33.45;22.92;;;;;;;4.95;91.01;100503.38;4980220;28;20236;-78
2022/03/24 06:36:06;;;;;;;35.70;19.83;;;;;;;5.02;91.22;100498.78;4989602;28;20306;-79
2022/03/24 06:38:33;;;;;;;31.58;21.70;;;;;;;5.17;89.99;100500.25;4983967;28;20197;-78
2022/03/24 06:41:02;;;;;;;28.65;19.75;;;;;;;5.14;90.56;100506.53;4985747;28;20202;-78
2022/03/24 06:43:28;;;;;;;30.85;21.48;;;;;;;5.34;89.45;100497.22;4984206;28;20188;-79
2022/03/24 06:45:55;;;;;;;30.88;20.45;;;;;;;5.42;89.05;100498.78;4984495;28;20209;-79
2022/03/24 06:48:22;;;;;;;31.95;22.25;;;;;;;5.46;88.21;100499.59;4981224;28;20705;-78
2022/03/24 06:50:49;;;;;;;31.35;20.02;;;;;;;5.46;88.30;100504.94;4988875;28;20218;-79
2022/03/24 06:53:16;;;;;;;32.85;22.08;;;;;;;5.60;88.11;100497.47;4987351;28;20246;-78
2022/03/24 06:55:42;;;;;;;32.80;22.70;;;;;;;5.79;86.68;100497.94;4989984;28;20180;-79
2022/03/24 06:58:10;;;;;;;27.75;19.80;;;;;;;5.79;86.34;100495.25;4978916;28;20199;-80
2022/03/24 07:00:38;;;;;;;33.47;20.52;;;;;;;5.84;85.91;100492.47;4991186;28;20227;-78
2022/03/24 07:03:05;;;;;;;32.78;20.80;;;;;;;5.81;86.34;100488.09;4986830;28;20211;-78
2022/03/24 07:05:31;;;;;;;27.83;19.55;;;;;;;5.96;85.11;100502.88;4995413;28;20203;-80
2022/03/24 07:07:58;;;;;;;28.08;21.08;;;;;;;6.16;84.46;100490.81;4991392;28;20535;-78
2022/03/24 07:10:25;;;;;;;33.80;20.35;;;;;;;6.27;83.33;100491.41;4992825;28;20541;-80
2022/03/24 07:12:52;;;;;;;28.90;19.58;;;;;;;6.29;83.29;100497.63;4994712;28;20180;-78
2022/03/24 07:15:22;;;;;;;28.45;21.38;;;;;;;6.46;82.42;100498.03;4994421;28;20286;-80
2022/03/24 07:17:49;;;;;;;31.90;21.08;;;;;;;6.62;80.27;100495.81;4992005;28;20231;-78
2022/03/24 07:20:16;;;;;;;35.88;21.48;;;;;;;6.76;80.53;100489.19;4994001;28;20198;-77
2022/03/24 07:22:42;;;;;;;32.20;21.27;;;;;;;6.85;79.07;100499.63;4991922;28;20215;-80
2022/03/24 07:25:11;;;;;;;28.48;20.38;;;;;;;6.91;77.81;100499.47;4988005;28;20199;-79
2022/03/24 07:27:38;;;;;;;33.47;20.77;;;;;;;7.04;77.73;100498.19;4993478;28;20188;-80
2022/03/24 07:30:06;;;;;;;30.98;21.42;;;;;;;7.32;74.94;100498.22;4983241;28;20199;-79
2022/03/24 07:32:34;;;;;;;27.98;20.65;;;;;;;7.44;74.20;100501.47;4986837;28;20664;-80
2022/03/24 07:35:01;;;;;;;28.02;20.00;;;;;;;7.54;72.92;100497.59;4994518;28;20187;-80
2022/03/24 07:37:28;;;;;;;30.02;21.23;;;;;;;7.71;71.86;100494.34;4994330;28;20202;-79
2022/03/24 07:39:55;;;;;;;30.60;20.90;;;;;;;8.00;70.69;100490.72;4994626;28;20214;-78
2022/03/24 07:42:22;;;;;;;27.23;21.63;;;;;;;8.26;68.91;100494.34;4993456;28;20218;-79
2022/03/24 07:44:49;;;;;;;32.53;20.70;;;;;;;8.32;67.78;100494.13;4994410;28;20203;-80
2022/03/24 07:47:16;;;;;;;34.97;20.52;;;;;;;8.56;66.65;100489.75;4994524;28;20646;-78
2022/03/24 07:49:45;;;;;;;32.10;21.60;;;;;;;8.64;65.38;100502.88;4993309;28;20207;-77
2022/03/24 07:52:14;;;;;;;42.88;22.73;;;;;;;8.69;65.85;100496.44;4993858;28;20195;-77
2022/03/24 07:54:49;;;;;;;29.80;21.45;;;;;;;8.80;65.63;100496.06;4991779;28;20556;-79
2022/03/24 07:57:16;;;;;;;32.63;21.02;;;;;;;8.84;64.42;100491.44;4994843;28;20587;-79
2022/03/24 07:59:42;;;;;;;35.40;21.23;;;;;;;8.99;63.96;100490.88;4994158;28;20196;-78
2022/03/24 08:02:09;;;;;;;35.42;22.05;;;;;;;9.09;63.53;100497.66;4994043;28;20939;-78
2022/03/24 08:04:35;;;;;;;38.08;22.15;;;;;;;9.18;63.38;100502.69;4994620;28;20598;-77
2022/03/24 08:07:04;;;;;;;35.85;23.48;;;;;;;9.42;62.21;100499.09;4994589;28;20534;-77
2022/03/24 08:09:33;;;;;;;33.97;23.42;;;;;;;9.48;61.42;100497.06;4994437;28;20259;-78
2022/03/24 08:12:00;;;;;;;34.80;22.80;;;;;;;9.84;59.80;100492.97;4994002;28;20536;-79
2022/03/24 08:14:26;;;;;;;32.75;21.75;;;;;;;9.74;59.37;100493.31;4994386;28;20540;-79
2022/03/24 08:16:53;;;;;;;35.22;22.65;;;;;;;10.00;59.12;100489.56;4993918;28;20206;-77
2022/03/24 08:19:20;;;;;;;40.13;24.20;;;;;;;10.08;57.15;100494.63;4995358;28;20190;-77
2022/03/24 08:21:46;;;;;;;34.28;21.65;;;;;;;10.34;56.71;100484.59;4995691;28;20224;-78
2022/03/24 08:24:14;;;;;;;38.50;22.95;;;;;;;10.60;55.36;100494.22;4995233;28;20733;-77
2022/03/24 08:26:41;;;;;;;36.33;24.52;;;;;;;10.98;53.61;100497.03;4995297;28;20188;-77
2022/03/24 08:29:08;;;;;;;34.00;22.10;;;;;;;11.07;53.05;100492.09;4995335;28;20527;-78
2022/03/24 08:31:34;;;;;;;34.00;22.48;;;;;;;11.21;52.39;100495.97;4995042;28;20286;-78
2022/03/24 08:34:01;;;;;;;34.70;22.85;;;;;;;11.50;51.13;100488.34;4994779;28;20685;-78
2022/03/24 08:36:27;;;;;;;39.28;23.90;;;;;;;11.54;51.15;100489.94;4994752;28;20239;-78
2022/03/24 08:38:56;;;;;;;34.80;23.70;;;;;;;11.83;49.31;100483.13;4994975;28;20197;-78
2022/03/24 08:41:24;;;;;;;33.63;23.15;;;;;;;12.01;48.92;100487.66;4994739;28;20211;-76
2022/03/24 08:43:51;;;;;;;32.60;22.98;;;;;;;12.01;50.03;100489.47;4994663;28;20650;-77
2022/03/24 08:46:20;;;;;;;30.88;22.08;;;;;;;12.25;48.08;100484.66;4994913;28;20207;-76
2022/03/24 08:48:46;;;;;;;33.83;23.27;;;;;;;12.15;47.67;100492.34;4994475;28;20187;-78
2022/03/24 08:51:13;;;;;;;30.85;22.38;;;;;;;12.10;47.89;100483.63;4994238;28;20548;-78
2022/03/24 08:53:40;;;;;;;31.30;22.92;;;;;;;12.14;47.75;100487.88;4994223;28;20246;-77
2022/03/24 08:56:07;;;;;;;28.23;22.15;;;;;;;12.59;46.67;100489.19;4994364;28;20196;-77
2022/03/24 08:58:35;;;;;;;41.17;23.02;;;;;;;12.73;46.27;100489.34;4993235;28;20203;-76
2022/03/24 09:01:01;;;;;;;36.28;23.60;;;;;;;13.10;45.03;100490.06;4993813;28;20505;-78
2022/03/24 09:03:28;;;;;;;33.80;23.10;;;;;;;13.40;44.26;100486.66;4993448;28;20215;-77
2022/03/24 09:05:55;;;;;;;32.78;23.67;;;;;;;13.56;43.46;100478.56;4993845;28;20312;-78
2022/03/24 09:08:21;;;;;;;35.63;23.75;;;;;;;13.68;43.46;100485.09;4993778;28;20187;-76
2022/03/24 09:10:50;;;;;;;35.10;24.40;;;;;;;13.67;43.11;100483.38;4994087;28;20192;-76
2022/03/24 09:13:17;;;;;;;36.92;24.40;;;;;;;13.76;43.02;100482.84;4993700;28;20554;-77
2022/03/24 09:15:45;;;;;;;40.00;25.02;;;;;;;14.14;41.98;100483.31;4994105;28;20199;-78
2022/03/24 09:18:13;;;;;;;37.15;23.35;;;;;;;14.45;41.73;100481.50;4993923;28;20189;-76
2022/03/24 09:20:40;;;;;;;37.13;27.65;;;;;;;14.60;40.98;100479.72;4994013;28;20202;-76
2022/03/24 09:23:08;;;;;;;41.88;25.58;;;;;;;14.78;40.49;100478.59;4993143;28;20214;-77
2022/03/24 09:25:38;;;;;;;36.30;23.70;;;;;;;14.98;39.89;100482.78;4993497;28;20436;-75
2022/03/24 09:28:06;;;;;;;41.10;23.10;;;;;;;15.09;39.61;100476.69;4993416;28;20189;-78
2022/03/24 09:30:33;;;;;;;40.08;25.17;;;;;;;15.40;39.76;100480.16;4993315;28;20242;-78
2022/03/24 09:33:01;;;;;;;36.22;23.35;;;;;;;15.61;38.48;100486.91;4993606;28;20296;-78
2022/03/24 09:35:28;;;;;;;36.97;22.05;;;;;;;15.67;37.90;100482.03;4993268;28;20648;-78
2022/03/24 09:37:54;;;;;;;31.33;21.63;;;;;;;15.82;37.33;100479.22;4993378;28;20203;-77
2022/03/24 09:40:21;;;;;;;32.30;20.70;;;;;;;16.18;36.88;100480.47;4993292;28;20546;-78
2022/03/24 09:42:48;;;;;;;35.85;22.92;;;;;;;16.27;36.30;100470.81;4992920;28;20579;-78
2022/03/24 09:45:15;;;;;;;31.73;20.65;;;;;;;16.45;35.55;100472.28;4993077;28;20198;-78
2022/03/24 09:47:42;;;;;;;32.95;21.55;;;;;;;16.55;34.69;100475.25;4993390;28;20209;-78
2022/03/24 09:50:12;;;;;;;31.88;20.70;;;;;;;16.65;34.20;100480.91;4993070;28;20210;-78
2022/03/24 09:52:39;;;;;;;30.63;19.95;;;;;;;16.48;33.52;100479.34;4993290;28;20365;-78
2022/03/24 09:55:07;;;;;;;27.65;19.17;;;;;;;16.51;33.80;100479.16;4993258;28;20701;-77
2022/03/24 09:57:34;;;;;;;28.08;19.58;;;;;;;16.97;35.82;100477.81;4993053;28;20207;-78
2022/03/24 10:00:00;;;;;;;31.10;19.10;;;;;;;17.07;33.72;100474.34;4992560;28;20211;-77
2022/03/24 10:02:28;;;;;;;28.35;19.42;;;;;;;17.11;32.75;100472.25;4992974;28;20210;-77
2022/03/24 10:04:57;;;;;;;24.23;17.98;;;;;;;17.37;32.65;100472.25;4993167;28;20214;-78
2022/03/24 10:07:26;;;;;;;30.08;18.98;;;;;;;17.48;32.48;100465.03;4992705;28;20186;-78
2022/03/24 10:09:55;;;;;;;26.55;18.50;;;;;;;17.45;33.33;100475.25;4992777;28;20204;-78
2022/03/24 10:12:24;;;;;;;33.45;18.77;;;;;;;17.43;31.95;100474.50;4992861;28;20200;-78
2022/03/24 10:15:01;;;;;;;27.98;20.08;;;;;;;17.60;31.20;100470.56;4992275;28;20228;-78
2022/03/24 10:17:28;;;;;;;27.48;18.80;;;;;;;17.95;34.30;100469.78;4992845;28;20187;-77
2022/03/24 10:19:59;;;;;;;27.92;19.92;;;;;;;17.87;31.37;100467.66;4992860;28;20548;-76
2022/03/24 10:22:28;;;;;;;28.58;19.58;;;;;;;17.94;31.73;100468.06;4992942;28;20262;-78
2022/03/24 10:24:55;;;;;;;26.55;18.48;;;;;;;18.01;31.51;100458.44;4992777;28;20196;-77
2022/03/24 10:27:24;;;;;;;28.40;18.50;;;;;;;18.05;32.12;100463.56;4992834;28;20188;-77
2022/03/24 10:29:54;;;;;;;27.73;18.58;;;;;;;18.15;33.79;100452.81;4991870;28;20715;-77
2022/03/24 10:32:22;;;;;;;24.23;17.67;;;;;;;18.43;32.06;100456.13;4992249;28;20188;-77
2022/03/24 10:34:50;;;;;;;25.35;18.50;;;;;;;18.33;30.83;100458.72;4992502;28;20538;-78
2022/03/24 10:37:19;;;;;;;24.60;17.23;;;;;;;18.34;31.11;100455.00;4992706;28;20549;-78
2022/03/24 10:39:58;;;;;;;23.85;18.25;;;;;;;18.52;30.93;100458.19;4992772;28;20619;-78
2022/03/24 10:42:27;;;;;;;29.00;19.75;;;;;;;18.80;29.79;100459.63;4992368;28;20288;-79
2022/03/24 10:45:19;;;;;;;23.35;16.38;;;;;;;18.64;30.82;100459.06;4992706;28;20886;-77
2022/03/24 10:47:51;;;;;;;24.65;15.65;;;;;;;18.57;29.89;100458.69;4992155;28;20277;-77
2022/03/24 10:50:23;;;;;;;21.65;14.63;;;;;;;18.43;29.12;100456.13;4992430;28;20184;-77
2022/03/24 10:52:51;;;;;;;21.77;17.05;;;;;;;18.69;29.69;100452.25;4992371;28;20189;-77
2022/03/24 10:55:28;;;;;;;21.88;16.35;;;;;;;18.84;31.97;100452.94;4992099;28;20300;-76
2022/03/24 10:57:55;;;;;;;21.70;16.73;;;;;;;18.84;31.80;100447.47;4992628;28;20536;-77
2022/03/24 11:00:22;;;;;;;24.15;16.83;;;;;;;18.96;30.85;100442.91;4992272;28;20244;-77
2022/03/24 11:02:49;;;;;;;25.95;16.05;;;;;;;18.67;29.39;100446.03;4991940;28;20221;-79
2022/03/24 11:05:16;;;;;;;21.60;15.18;;;;;;;18.87;29.57;100443.63;4992538;28;20633;-78
2022/03/24 11:07:51;;;;;;;24.98;15.20;;;;;;;19.12;31.08;100448.00;4992083;28;20241;-76
2022/03/24 11:10:21;;;;;;;18.98;13.63;;;;;;;19.16;30.10;100441.31;4992462;28;20583;-76
2022/03/24 11:12:50;;;;;;;15.40;12.80;;;;;;;19.07;29.27;100439.31;4992380;28;20222;-78
2022/03/24 11:15:17;;;;;;;18.58;13.30;;;;;;;19.18;30.40;100436.59;4992271;28;20196;-77